sensor_id;sensor_type;location;lat;lon;timestamp;P1;durP1;ratioP1;P2;durP2;ratioP2
63536;SDS011;49686;51.880;5.632;2023-02-28T00:02:16;18.50;;;8.02;;
63536;SDS011;49686;51.880;5.632;2023-02-28T00:04:43;40.47;;;16.42;;
63536;SDS011;49686;51.880;5.632;2023-02-28T00:07:12;23.58;;;10.77;;
63536;SDS011;49686;51.880;5.632;2023-02-28T00:09:39;10.45;;;5.45;;
63536;SDS011;49686;51.880;5.632;2023-02-28T00:12:07;16.48;;;7.95;;
63536;SDS011;49686;51.880;5.632;2023-02-28T00:14:34;11.97;;;5.70;;
63536;SDS011;49686;51.880;5.632;2023-02-28T00:17:00;19.70;;;8.32;;
63536;SDS011;49686;51.880;5.632;2023-02-28T00:19:27;16.00;;;5.75;;
63536;SDS011;49686;51.880;5.632;2023-02-28T00:21:54;10.15;;;4.85;;
63536;SDS011;49686;51.880;5.632;2023-02-28T00:24:21;18.95;;;7.32;;
63536;SDS011;49686;51.880;5.632;2023-02-28T00:26:47;7.93;;;5.00;;
63536;SDS011;49686;51.880;5.632;2023-02-28T00:29:18;6.45;;;4.05;;
63536;SDS011;49686;51.880;5.632;2023-02-28T00:31:45;6.22;;;3.28;;
63536;SDS011;49686;51.880;5.632;2023-02-28T00:34:12;7.70;;;3.70;;
63536;SDS011;49686;51.880;5.632;2023-02-28T00:36:39;6.28;;;3.75;;
63536;SDS011;49686;51.880;5.632;2023-02-28T00:39:05;4.93;;;3.30;;
63536;SDS011;49686;51.880;5.632;2023-02-28T00:41:32;5.28;;;3.08;;
63536;SDS011;49686;51.880;5.632;2023-02-28T00:43:59;7.13;;;3.95;;
63536;SDS011;49686;51.880;5.632;2023-02-28T00:46:27;7.30;;;3.83;;
63536;SDS011;49686;51.880;5.632;2023-02-28T00:48:54;7.38;;;3.97;;
63536;SDS011;49686;51.880;5.632;2023-02-28T00:51:21;6.57;;;3.50;;
63536;SDS011;49686;51.880;5.632;2023-02-28T00:53:48;5.45;;;3.38;;
63536;SDS011;49686;51.880;5.632;2023-02-28T00:56:14;7.78;;;3.13;;
63536;SDS011;49686;51.880;5.632;2023-02-28T00:58:41;7.10;;;3.50;;
63536;SDS011;49686;51.880;5.632;2023-02-28T01:01:08;8.65;;;3.83;;
63536;SDS011;49686;51.880;5.632;2023-02-28T01:03:37;7.80;;;3.78;;
63536;SDS011;49686;51.880;5.632;2023-02-28T01:06:04;6.60;;;4.30;;
63536;SDS011;49686;51.880;5.632;2023-02-28T01:08:31;8.32;;;4.00;;
63536;SDS011;49686;51.880;5.632;2023-02-28T01:10:57;6.72;;;3.67;;
63536;SDS011;49686;51.880;5.632;2023-02-28T01:13:33;5.70;;;3.95;;
63536;SDS011;49686;51.880;5.632;2023-02-28T01:16:00;6.47;;;4.10;;
63536;SDS011;49686;51.880;5.632;2023-02-28T01:18:27;6.15;;;3.75;;
63536;SDS011;49686;51.880;5.632;2023-02-28T01:20:55;4.25;;;2.88;;
63536;SDS011;49686;51.880;5.632;2023-02-28T01:23:22;6.10;;;3.13;;
63536;SDS011;49686;51.880;5.632;2023-02-28T01:25:50;6.90;;;3.38;;
63536;SDS011;49686;51.880;5.632;2023-02-28T01:28:17;5.97;;;3.33;;
63536;SDS011;49686;51.880;5.632;2023-02-28T01:30:47;5.70;;;3.20;;
63536;SDS011;49686;51.880;5.632;2023-02-28T01:33:14;5.50;;;3.65;;
63536;SDS011;49686;51.880;5.632;2023-02-28T01:35:41;5.30;;;3.45;;
63536;SDS011;49686;51.880;5.632;2023-02-28T01:38:09;4.68;;;3.20;;
63536;SDS011;49686;51.880;5.632;2023-02-28T01:40:47;6.25;;;3.10;;
63536;SDS011;49686;51.880;5.632;2023-02-28T01:43:16;6.10;;;3.50;;
63536;SDS011;49686;51.880;5.632;2023-02-28T01:45:47;6.43;;;3.03;;
63536;SDS011;49686;51.880;5.632;2023-02-28T01:48:14;8.05;;;4.05;;
63536;SDS011;49686;51.880;5.632;2023-02-28T01:50:42;4.82;;;3.40;;
63536;SDS011;49686;51.880;5.632;2023-02-28T01:53:12;3.40;;;2.30;;
63536;SDS011;49686;51.880;5.632;2023-02-28T01:55:42;5.78;;;3.80;;
63536;SDS011;49686;51.880;5.632;2023-02-28T01:58:14;6.47;;;3.67;;
63536;SDS011;49686;51.880;5.632;2023-02-28T02:00:42;5.50;;;3.60;;
63536;SDS011;49686;51.880;5.632;2023-02-28T02:03:09;5.88;;;4.07;;
63536;SDS011;49686;51.880;5.632;2023-02-28T02:05:42;7.90;;;3.72;;
63536;SDS011;49686;51.880;5.632;2023-02-28T02:08:10;5.28;;;3.83;;
63536;SDS011;49686;51.880;5.632;2023-02-28T02:10:43;7.20;;;4.07;;
63536;SDS011;49686;51.880;5.632;2023-02-28T02:13:14;6.40;;;4.10;;
63536;SDS011;49686;51.880;5.632;2023-02-28T02:15:53;7.70;;;3.40;;
63536;SDS011;49686;51.880;5.632;2023-02-28T02:18:29;4.80;;;3.15;;
63536;SDS011;49686;51.880;5.632;2023-02-28T02:24:15;6.40;;;3.50;;
63536;SDS011;49686;51.880;5.632;2023-02-28T02:27:09;8.18;;;4.13;;
63536;SDS011;49686;51.880;5.632;2023-02-28T02:30:08;4.82;;;3.22;;
63536;SDS011;49686;51.880;5.632;2023-02-28T02:33:05;7.10;;;3.83;;
63536;SDS011;49686;51.880;5.632;2023-02-28T02:35:52;6.93;;;3.70;;
63536;SDS011;49686;51.880;5.632;2023-02-28T02:38:24;7.22;;;4.13;;
63536;SDS011;49686;51.880;5.632;2023-02-28T02:40:58;6.97;;;4.80;;
63536;SDS011;49686;51.880;5.632;2023-02-28T02:43:35;6.45;;;4.05;;
63536;SDS011;49686;51.880;5.632;2023-02-28T02:46:06;6.00;;;3.55;;
63536;SDS011;49686;51.880;5.632;2023-02-28T02:48:36;6.32;;;4.40;;
63536;SDS011;49686;51.880;5.632;2023-02-28T02:51:10;8.05;;;4.15;;
63536;SDS011;49686;51.880;5.632;2023-02-28T02:53:41;8.73;;;5.30;;
63536;SDS011;49686;51.880;5.632;2023-02-28T02:56:11;8.82;;;4.95;;
63536;SDS011;49686;51.880;5.632;2023-02-28T02:58:40;9.20;;;4.33;;
63536;SDS011;49686;51.880;5.632;2023-02-28T03:01:10;8.88;;;4.43;;
63536;SDS011;49686;51.880;5.632;2023-02-28T03:03:40;11.00;;;5.15;;
63536;SDS011;49686;51.880;5.632;2023-02-28T03:06:08;8.60;;;4.35;;
63536;SDS011;49686;51.880;5.632;2023-02-28T03:08:36;8.35;;;5.22;;
63536;SDS011;49686;51.880;5.632;2023-02-28T03:11:05;8.32;;;5.03;;
63536;SDS011;49686;51.880;5.632;2023-02-28T03:16:47;6.38;;;4.25;;
63536;SDS011;49686;51.880;5.632;2023-02-28T03:19:31;7.30;;;4.85;;
63536;SDS011;49686;51.880;5.632;2023-02-28T03:22:17;8.43;;;4.07;;
63536;SDS011;49686;51.880;5.632;2023-02-28T03:24:58;5.80;;;3.72;;
63536;SDS011;49686;51.880;5.632;2023-02-28T03:27:34;6.78;;;4.25;;
63536;SDS011;49686;51.880;5.632;2023-02-28T03:30:06;7.18;;;3.78;;
63536;SDS011;49686;51.880;5.632;2023-02-28T03:32:38;9.75;;;4.47;;
63536;SDS011;49686;51.880;5.632;2023-02-28T03:35:12;6.30;;;3.75;;
63536;SDS011;49686;51.880;5.632;2023-02-28T03:37:46;8.65;;;4.25;;
63536;SDS011;49686;51.880;5.632;2023-02-28T03:40:16;10.23;;;4.85;;
63536;SDS011;49686;51.880;5.632;2023-02-28T03:42:47;7.65;;;4.60;;
63536;SDS011;49686;51.880;5.632;2023-02-28T03:45:18;8.55;;;4.38;;
63536;SDS011;49686;51.880;5.632;2023-02-28T03:47:49;6.97;;;4.30;;
63536;SDS011;49686;51.880;5.632;2023-02-28T03:50:20;7.38;;;4.15;;
63536;SDS011;49686;51.880;5.632;2023-02-28T03:52:52;7.00;;;4.78;;
63536;SDS011;49686;51.880;5.632;2023-02-28T03:55:24;7.00;;;4.07;;
63536;SDS011;49686;51.880;5.632;2023-02-28T03:57:53;6.82;;;4.00;;
63536;SDS011;49686;51.880;5.632;2023-02-28T04:00:26;6.00;;;4.43;;
63536;SDS011;49686;51.880;5.632;2023-02-28T04:02:56;7.78;;;4.40;;
63536;SDS011;49686;51.880;5.632;2023-02-28T04:05:23;8.63;;;3.65;;
63536;SDS011;49686;51.880;5.632;2023-02-28T04:07:52;10.10;;;4.63;;
63536;SDS011;49686;51.880;5.632;2023-02-28T04:10:19;7.30;;;4.40;;
63536;SDS011;49686;51.880;5.632;2023-02-28T04:12:46;5.57;;;3.75;;
63536;SDS011;49686;51.880;5.632;2023-02-28T04:15:13;7.22;;;4.07;;
63536;SDS011;49686;51.880;5.632;2023-02-28T04:17:40;8.15;;;4.55;;
63536;SDS011;49686;51.880;5.632;2023-02-28T04:20:07;6.22;;;4.10;;
63536;SDS011;49686;51.880;5.632;2023-02-28T04:22:35;4.70;;;3.35;;
63536;SDS011;49686;51.880;5.632;2023-02-28T04:25:03;6.32;;;3.78;;
63536;SDS011;49686;51.880;5.632;2023-02-28T04:27:32;5.57;;;3.63;;
63536;SDS011;49686;51.880;5.632;2023-02-28T04:29:58;4.13;;;3.15;;
63536;SDS011;49686;51.880;5.632;2023-02-28T04:32:25;4.95;;;3.08;;
63536;SDS011;49686;51.880;5.632;2023-02-28T04:34:52;7.30;;;3.65;;
63536;SDS011;49686;51.880;5.632;2023-02-28T04:37:19;4.63;;;2.88;;
63536;SDS011;49686;51.880;5.632;2023-02-28T04:39:46;4.85;;;3.20;;
63536;SDS011;49686;51.880;5.632;2023-02-28T04:42:14;6.03;;;3.25;;
63536;SDS011;49686;51.880;5.632;2023-02-28T04:44:42;4.57;;;2.92;;
63536;SDS011;49686;51.880;5.632;2023-02-28T04:47:08;4.20;;;2.30;;
63536;SDS011;49686;51.880;5.632;2023-02-28T04:49:36;4.28;;;2.53;;
63536;SDS011;49686;51.880;5.632;2023-02-28T04:52:03;4.72;;;2.75;;
63536;SDS011;49686;51.880;5.632;2023-02-28T04:54:31;4.68;;;2.80;;
63536;SDS011;49686;51.880;5.632;2023-02-28T04:56:58;4.78;;;2.40;;
63536;SDS011;49686;51.880;5.632;2023-02-28T04:59:26;3.83;;;2.40;;
63536;SDS011;49686;51.880;5.632;2023-02-28T05:01:54;4.85;;;2.17;;
63536;SDS011;49686;51.880;5.632;2023-02-28T05:04:21;4.43;;;2.30;;
63536;SDS011;49686;51.880;5.632;2023-02-28T05:06:47;2.88;;;1.83;;
63536;SDS011;49686;51.880;5.632;2023-02-28T05:09:14;4.13;;;2.30;;
63536;SDS011;49686;51.880;5.632;2023-02-28T05:11:41;3.47;;;1.90;;
63536;SDS011;49686;51.880;5.632;2023-02-28T05:14:09;4.03;;;2.22;;
63536;SDS011;49686;51.880;5.632;2023-02-28T05:16:39;4.15;;;2.28;;
63536;SDS011;49686;51.880;5.632;2023-02-28T05:19:06;3.03;;;2.08;;
63536;SDS011;49686;51.880;5.632;2023-02-28T05:21:33;2.55;;;2.00;;
63536;SDS011;49686;51.880;5.632;2023-02-28T05:24:02;3.67;;;2.10;;
63536;SDS011;49686;51.880;5.632;2023-02-28T05:26:31;5.55;;;2.03;;
63536;SDS011;49686;51.880;5.632;2023-02-28T05:29:02;3.35;;;2.38;;
63536;SDS011;49686;51.880;5.632;2023-02-28T05:31:29;5.43;;;2.97;;
63536;SDS011;49686;51.880;5.632;2023-02-28T05:33:57;4.22;;;2.30;;
63536;SDS011;49686;51.880;5.632;2023-02-28T05:36:24;4.17;;;2.73;;
63536;SDS011;49686;51.880;5.632;2023-02-28T05:38:51;5.60;;;2.90;;
63536;SDS011;49686;51.880;5.632;2023-02-28T05:41:19;4.32;;;2.45;;
63536;SDS011;49686;51.880;5.632;2023-02-28T05:43:46;2.42;;;1.98;;
63536;SDS011;49686;51.880;5.632;2023-02-28T05:46:13;4.28;;;2.20;;
63536;SDS011;49686;51.880;5.632;2023-02-28T05:48:41;4.05;;;2.22;;
63536;SDS011;49686;51.880;5.632;2023-02-28T05:51:10;3.07;;;2.07;;
63536;SDS011;49686;51.880;5.632;2023-02-28T05:53:37;3.03;;;2.20;;
63536;SDS011;49686;51.880;5.632;2023-02-28T05:56:04;3.80;;;2.40;;
63536;SDS011;49686;51.880;5.632;2023-02-28T05:58:31;2.33;;;1.92;;
63536;SDS011;49686;51.880;5.632;2023-02-28T06:00:58;2.47;;;2.08;;
63536;SDS011;49686;51.880;5.632;2023-02-28T06:03:25;3.00;;;2.10;;
63536;SDS011;49686;51.880;5.632;2023-02-28T06:05:53;3.38;;;2.20;;
63536;SDS011;49686;51.880;5.632;2023-02-28T06:08:21;4.18;;;2.35;;
63536;SDS011;49686;51.880;5.632;2023-02-28T06:10:48;4.57;;;2.27;;
63536;SDS011;49686;51.880;5.632;2023-02-28T06:13:15;4.47;;;2.47;;
63536;SDS011;49686;51.880;5.632;2023-02-28T06:15:41;2.60;;;1.67;;
63536;SDS011;49686;51.880;5.632;2023-02-28T06:18:08;2.67;;;1.98;;
63536;SDS011;49686;51.880;5.632;2023-02-28T06:20:35;5.57;;;2.50;;
63536;SDS011;49686;51.880;5.632;2023-02-28T06:23:02;3.35;;;2.10;;
63536;SDS011;49686;51.880;5.632;2023-02-28T06:25:30;3.47;;;2.10;;
63536;SDS011;49686;51.880;5.632;2023-02-28T06:27:57;3.08;;;2.25;;
63536;SDS011;49686;51.880;5.632;2023-02-28T06:30:24;5.80;;;2.40;;
63536;SDS011;49686;51.880;5.632;2023-02-28T06:32:51;3.95;;;2.40;;
63536;SDS011;49686;51.880;5.632;2023-02-28T06:35:18;4.85;;;2.65;;
63536;SDS011;49686;51.880;5.632;2023-02-28T06:37:48;3.45;;;2.15;;
63536;SDS011;49686;51.880;5.632;2023-02-28T06:40:15;3.30;;;2.17;;
63536;SDS011;49686;51.880;5.632;2023-02-28T06:42:46;6.72;;;2.72;;
63536;SDS011;49686;51.880;5.632;2023-02-28T06:45:15;3.85;;;2.35;;
63536;SDS011;49686;51.880;5.632;2023-02-28T06:47:41;7.93;;;3.70;;
63536;SDS011;49686;51.880;5.632;2023-02-28T06:50:09;6.00;;;2.80;;
63536;SDS011;49686;51.880;5.632;2023-02-28T06:52:38;3.75;;;2.60;;
63536;SDS011;49686;51.880;5.632;2023-02-28T06:55:08;3.97;;;2.30;;
63536;SDS011;49686;51.880;5.632;2023-02-28T06:57:35;5.88;;;3.28;;
63536;SDS011;49686;51.880;5.632;2023-02-28T07:00:08;6.50;;;3.33;;
63536;SDS011;49686;51.880;5.632;2023-02-28T07:02:38;6.38;;;2.65;;
63536;SDS011;49686;51.880;5.632;2023-02-28T07:05:07;6.00;;;2.70;;
63536;SDS011;49686;51.880;5.632;2023-02-28T07:07:34;4.43;;;2.30;;
63536;SDS011;49686;51.880;5.632;2023-02-28T07:10:01;5.50;;;3.22;;
63536;SDS011;49686;51.880;5.632;2023-02-28T07:12:31;4.97;;;2.63;;
63536;SDS011;49686;51.880;5.632;2023-02-28T07:14:58;4.95;;;3.30;;
63536;SDS011;49686;51.880;5.632;2023-02-28T07:17:26;3.65;;;3.08;;
63536;SDS011;49686;51.880;5.632;2023-02-28T07:19:53;6.93;;;3.03;;
63536;SDS011;49686;51.880;5.632;2023-02-28T07:22:20;4.32;;;2.55;;
63536;SDS011;49686;51.880;5.632;2023-02-28T07:24:47;4.30;;;2.65;;
63536;SDS011;49686;51.880;5.632;2023-02-28T07:27:15;3.58;;;2.83;;
63536;SDS011;49686;51.880;5.632;2023-02-28T07:29:42;5.45;;;3.10;;
63536;SDS011;49686;51.880;5.632;2023-02-28T07:32:08;6.47;;;3.63;;
63536;SDS011;49686;51.880;5.632;2023-02-28T07:34:37;3.25;;;2.55;;
63536;SDS011;49686;51.880;5.632;2023-02-28T07:37:03;4.13;;;2.65;;
63536;SDS011;49686;51.880;5.632;2023-02-28T07:39:30;5.75;;;2.50;;
63536;SDS011;49686;51.880;5.632;2023-02-28T07:41:57;3.92;;;2.40;;
63536;SDS011;49686;51.880;5.632;2023-02-28T07:44:24;4.47;;;2.60;;
63536;SDS011;49686;51.880;5.632;2023-02-28T07:46:51;4.13;;;2.50;;
63536;SDS011;49686;51.880;5.632;2023-02-28T07:49:18;6.28;;;2.50;;
63536;SDS011;49686;51.880;5.632;2023-02-28T07:51:46;3.35;;;2.25;;
63536;SDS011;49686;51.880;5.632;2023-02-28T07:54:13;6.63;;;2.50;;
63536;SDS011;49686;51.880;5.632;2023-02-28T07:56:39;6.38;;;2.33;;
63536;SDS011;49686;51.880;5.632;2023-02-28T07:59:07;6.47;;;2.60;;
63536;SDS011;49686;51.880;5.632;2023-02-28T08:01:33;4.20;;;2.60;;
63536;SDS011;49686;51.880;5.632;2023-02-28T08:04:00;4.10;;;2.20;;
63536;SDS011;49686;51.880;5.632;2023-02-28T08:06:27;3.67;;;2.40;;
63536;SDS011;49686;51.880;5.632;2023-02-28T08:08:55;5.07;;;2.47;;
63536;SDS011;49686;51.880;5.632;2023-02-28T08:11:22;9.00;;;2.60;;
63536;SDS011;49686;51.880;5.632;2023-02-28T08:13:49;2.75;;;2.05;;
63536;SDS011;49686;51.880;5.632;2023-02-28T08:16:16;3.47;;;2.60;;
63536;SDS011;49686;51.880;5.632;2023-02-28T08:18:43;6.47;;;2.65;;
63536;SDS011;49686;51.880;5.632;2023-02-28T08:21:10;5.55;;;2.80;;
63536;SDS011;49686;51.880;5.632;2023-02-28T08:23:37;4.00;;;2.42;;
63536;SDS011;49686;51.880;5.632;2023-02-28T08:26:05;3.83;;;2.60;;
63536;SDS011;49686;51.880;5.632;2023-02-28T08:28:32;5.35;;;2.55;;
63536;SDS011;49686;51.880;5.632;2023-02-28T08:30:59;3.25;;;2.33;;
63536;SDS011;49686;51.880;5.632;2023-02-28T08:33:26;3.95;;;2.40;;
63536;SDS011;49686;51.880;5.632;2023-02-28T08:35:54;5.68;;;2.55;;
63536;SDS011;49686;51.880;5.632;2023-02-28T08:38:21;2.75;;;2.10;;
63536;SDS011;49686;51.880;5.632;2023-02-28T08:40:49;3.45;;;2.17;;
63536;SDS011;49686;51.880;5.632;2023-02-28T08:43:18;3.08;;;2.03;;
63536;SDS011;49686;51.880;5.632;2023-02-28T08:45:45;2.15;;;1.95;;
63536;SDS011;49686;51.880;5.632;2023-02-28T08:48:12;2.22;;;1.73;;
63536;SDS011;49686;51.880;5.632;2023-02-28T08:50:39;3.08;;;2.50;;
63536;SDS011;49686;51.880;5.632;2023-02-28T08:53:06;2.05;;;1.60;;
63536;SDS011;49686;51.880;5.632;2023-02-28T08:55:33;5.07;;;3.45;;
63536;SDS011;49686;51.880;5.632;2023-02-28T08:57:59;3.00;;;2.30;;
63536;SDS011;49686;51.880;5.632;2023-02-28T09:00:28;3.42;;;2.33;;
63536;SDS011;49686;51.880;5.632;2023-02-28T09:02:55;3.38;;;2.30;;
63536;SDS011;49686;51.880;5.632;2023-02-28T09:05:22;2.05;;;1.58;;
63536;SDS011;49686;51.880;5.632;2023-02-28T09:07:49;6.82;;;2.67;;
63536;SDS011;49686;51.880;5.632;2023-02-28T09:10:16;4.57;;;2.58;;
63536;SDS011;49686;51.880;5.632;2023-02-28T09:12:43;2.92;;;2.47;;
63536;SDS011;49686;51.880;5.632;2023-02-28T09:15:11;3.95;;;2.28;;
63536;SDS011;49686;51.880;5.632;2023-02-28T09:17:39;3.08;;;2.17;;
63536;SDS011;49686;51.880;5.632;2023-02-28T09:20:06;2.47;;;1.87;;
63536;SDS011;49686;51.880;5.632;2023-02-28T09:22:34;2.05;;;1.83;;
63536;SDS011;49686;51.880;5.632;2023-02-28T09:25:00;2.97;;;1.92;;
63536;SDS011;49686;51.880;5.632;2023-02-28T09:27:27;2.20;;;1.80;;
63536;SDS011;49686;51.880;5.632;2023-02-28T09:30:01;1.80;;;1.60;;
63536;SDS011;49686;51.880;5.632;2023-02-28T09:32:28;1.88;;;1.48;;
63536;SDS011;49686;51.880;5.632;2023-02-28T09:34:56;2.72;;;1.98;;
63536;SDS011;49686;51.880;5.632;2023-02-28T09:37:25;3.70;;;1.50;;
63536;SDS011;49686;51.880;5.632;2023-02-28T09:39:52;2.03;;;1.70;;
63536;SDS011;49686;51.880;5.632;2023-02-28T09:42:21;2.28;;;1.60;;
63536;SDS011;49686;51.880;5.632;2023-02-28T09:44:51;2.35;;;1.45;;
63536;SDS011;49686;51.880;5.632;2023-02-28T09:47:25;4.30;;;1.42;;
63536;SDS011;49686;51.880;5.632;2023-02-28T09:49:57;2.22;;;1.60;;
63536;SDS011;49686;51.880;5.632;2023-02-28T09:52:31;2.53;;;1.92;;
63536;SDS011;49686;51.880;5.632;2023-02-28T09:54:59;3.03;;;1.55;;
63536;SDS011;49686;51.880;5.632;2023-02-28T09:57:35;3.42;;;1.70;;
63536;SDS011;49686;51.880;5.632;2023-02-28T10:00:06;2.13;;;1.90;;
63536;SDS011;49686;51.880;5.632;2023-02-28T10:02:57;1.95;;;1.67;;
63536;SDS011;49686;51.880;5.632;2023-02-28T10:05:33;2.63;;;1.58;;
63536;SDS011;49686;51.880;5.632;2023-02-28T10:08:06;2.35;;;1.85;;
63536;SDS011;49686;51.880;5.632;2023-02-28T10:10:41;2.20;;;1.70;;
63536;SDS011;49686;51.880;5.632;2023-02-28T10:13:13;2.88;;;2.40;;
63536;SDS011;49686;51.880;5.632;2023-02-28T10:15:46;2.97;;;1.77;;
63536;SDS011;49686;51.880;5.632;2023-02-28T10:18:16;3.00;;;1.80;;
63536;SDS011;49686;51.880;5.632;2023-02-28T10:20:50;2.95;;;1.90;;
63536;SDS011;49686;51.880;5.632;2023-02-28T10:23:20;3.40;;;1.90;;
63536;SDS011;49686;51.880;5.632;2023-02-28T10:25:50;5.53;;;2.60;;
63536;SDS011;49686;51.880;5.632;2023-02-28T10:28:21;5.03;;;2.50;;
63536;SDS011;49686;51.880;5.632;2023-02-28T10:30:48;2.33;;;1.80;;
63536;SDS011;49686;51.880;5.632;2023-02-28T10:33:19;2.95;;;2.58;;
63536;SDS011;49686;51.880;5.632;2023-02-28T10:35:50;3.35;;;1.70;;
63536;SDS011;49686;51.880;5.632;2023-02-28T10:40:50;3.33;;;1.83;;
63536;SDS011;49686;51.880;5.632;2023-02-28T10:43:21;2.78;;;1.80;;
63536;SDS011;49686;51.880;5.632;2023-02-28T10:45:54;3.13;;;2.78;;
63536;SDS011;49686;51.880;5.632;2023-02-28T10:48:27;2.22;;;1.70;;
63536;SDS011;49686;51.880;5.632;2023-02-28T10:51:01;2.88;;;2.42;;
63536;SDS011;49686;51.880;5.632;2023-02-28T10:53:31;6.40;;;2.47;;
63536;SDS011;49686;51.880;5.632;2023-02-28T10:56:26;3.25;;;2.00;;
63536;SDS011;49686;51.880;5.632;2023-02-28T10:58:54;2.67;;;1.70;;
63536;SDS011;49686;51.880;5.632;2023-02-28T11:03:50;2.40;;;2.10;;
63536;SDS011;49686;51.880;5.632;2023-02-28T11:06:20;3.80;;;2.97;;
63536;SDS011;49686;51.880;5.632;2023-02-28T11:08:50;1.92;;;1.77;;
63536;SDS011;49686;51.880;5.632;2023-02-28T11:11:19;2.92;;;1.77;;
63536;SDS011;49686;51.880;5.632;2023-02-28T11:13:47;2.85;;;2.10;;
63536;SDS011;49686;51.880;5.632;2023-02-28T11:16:19;3.05;;;1.92;;
63536;SDS011;49686;51.880;5.632;2023-02-28T11:18:48;2.55;;;1.63;;
63536;SDS011;49686;51.880;5.632;2023-02-28T11:21:16;2.72;;;1.88;;
63536;SDS011;49686;51.880;5.632;2023-02-28T11:23:55;4.07;;;1.98;;
63536;SDS011;49686;51.880;5.632;2023-02-28T11:26:35;2.10;;;1.80;;
63536;SDS011;49686;51.880;5.632;2023-02-28T11:29:08;2.47;;;2.00;;
63536;SDS011;49686;51.880;5.632;2023-02-28T11:31:38;2.08;;;1.83;;
63536;SDS011;49686;51.880;5.632;2023-02-28T11:36:51;3.40;;;2.33;;
63536;SDS011;49686;51.880;5.632;2023-02-28T11:39:19;2.42;;;1.77;;
63536;SDS011;49686;51.880;5.632;2023-02-28T11:41:54;2.35;;;1.70;;
63536;SDS011;49686;51.880;5.632;2023-02-28T11:44:43;2.58;;;1.80;;
63536;SDS011;49686;51.880;5.632;2023-02-28T11:47:27;2.85;;;2.55;;
63536;SDS011;49686;51.880;5.632;2023-02-28T11:50:13;3.88;;;2.03;;
63536;SDS011;49686;51.880;5.632;2023-02-28T11:52:51;3.50;;;2.20;;
63536;SDS011;49686;51.880;5.632;2023-02-28T11:55:20;4.32;;;2.20;;
63536;SDS011;49686;51.880;5.632;2023-02-28T11:57:55;5.05;;;2.35;;
63536;SDS011;49686;51.880;5.632;2023-02-28T12:00:38;3.47;;;2.20;;
63536;SDS011;49686;51.880;5.632;2023-02-28T12:03:14;2.63;;;2.42;;
63536;SDS011;49686;51.880;5.632;2023-02-28T12:05:49;2.45;;;2.25;;
63536;SDS011;49686;51.880;5.632;2023-02-28T12:08:27;2.65;;;1.75;;
63536;SDS011;49686;51.880;5.632;2023-02-28T12:11:09;2.70;;;2.17;;
63536;SDS011;49686;51.880;5.632;2023-02-28T12:13:44;3.47;;;3.17;;
63536;SDS011;49686;51.880;5.632;2023-02-28T12:19:06;3.00;;;2.78;;
63536;SDS011;49686;51.880;5.632;2023-02-28T12:24:30;2.88;;;2.28;;
63536;SDS011;49686;51.880;5.632;2023-02-28T12:27:15;3.67;;;2.55;;
63536;SDS011;49686;51.880;5.632;2023-02-28T12:29:46;2.75;;;2.33;;
63536;SDS011;49686;51.880;5.632;2023-02-28T12:32:16;2.72;;;2.53;;
63536;SDS011;49686;51.880;5.632;2023-02-28T12:34:47;3.05;;;2.13;;
63536;SDS011;49686;51.880;5.632;2023-02-28T12:37:22;2.85;;;2.13;;
63536;SDS011;49686;51.880;5.632;2023-02-28T12:40:00;3.92;;;2.20;;
63536;SDS011;49686;51.880;5.632;2023-02-28T12:42:29;3.65;;;2.10;;
63536;SDS011;49686;51.880;5.632;2023-02-28T12:44:59;2.75;;;2.30;;
63536;SDS011;49686;51.880;5.632;2023-02-28T12:47:27;2.28;;;1.80;;
63536;SDS011;49686;51.880;5.632;2023-02-28T12:49:56;2.08;;;1.80;;
63536;SDS011;49686;51.880;5.632;2023-02-28T12:52:28;2.85;;;1.92;;
63536;SDS011;49686;51.880;5.632;2023-02-28T12:55:05;3.55;;;2.17;;
63536;SDS011;49686;51.880;5.632;2023-02-28T12:57:38;2.58;;;2.10;;
63536;SDS011;49686;51.880;5.632;2023-02-28T13:00:10;3.13;;;2.58;;
63536;SDS011;49686;51.880;5.632;2023-02-28T13:02:59;2.85;;;2.20;;
63536;SDS011;49686;51.880;5.632;2023-02-28T13:06:01;2.70;;;2.42;;
63536;SDS011;49686;51.880;5.632;2023-02-28T13:08:41;3.80;;;2.17;;
63536;SDS011;49686;51.880;5.632;2023-02-28T13:11:29;2.70;;;2.03;;
63536;SDS011;49686;51.880;5.632;2023-02-28T13:13:59;2.55;;;2.10;;
63536;SDS011;49686;51.880;5.632;2023-02-28T13:16:27;2.47;;;2.00;;
63536;SDS011;49686;51.880;5.632;2023-02-28T13:19:07;3.53;;;2.20;;
63536;SDS011;49686;51.880;5.632;2023-02-28T13:21:41;2.72;;;2.22;;
63536;SDS011;49686;51.880;5.632;2023-02-28T13:24:09;3.33;;;2.20;;
63536;SDS011;49686;51.880;5.632;2023-02-28T13:29:50;3.08;;;2.60;;
63536;SDS011;49686;51.880;5.632;2023-02-28T13:32:34;3.10;;;2.78;;
63536;SDS011;49686;51.880;5.632;2023-02-28T13:38:12;3.75;;;2.42;;
63536;SDS011;49686;51.880;5.632;2023-02-28T13:40:43;3.15;;;2.50;;
63536;SDS011;49686;51.880;5.632;2023-02-28T13:43:12;3.47;;;2.55;;
63536;SDS011;49686;51.880;5.632;2023-02-28T13:46:06;3.75;;;2.22;;
63536;SDS011;49686;51.880;5.632;2023-02-28T13:48:36;3.30;;;2.35;;
63536;SDS011;49686;51.880;5.632;2023-02-28T13:54:06;3.78;;;2.20;;
63536;SDS011;49686;51.880;5.632;2023-02-28T13:56:52;3.22;;;2.88;;
63536;SDS011;49686;51.880;5.632;2023-02-28T14:02:11;2.92;;;2.30;;
63536;SDS011;49686;51.880;5.632;2023-02-28T14:04:58;4.32;;;2.97;;
63536;SDS011;49686;51.880;5.632;2023-02-28T14:07:29;3.17;;;2.85;;
63536;SDS011;49686;51.880;5.632;2023-02-28T14:10:03;3.83;;;2.15;;
63536;SDS011;49686;51.880;5.632;2023-02-28T14:15:43;2.42;;;2.00;;
63536;SDS011;49686;51.880;5.632;2023-02-28T14:21:03;2.75;;;2.30;;
63536;SDS011;49686;51.880;5.632;2023-02-28T14:23:49;2.50;;;1.75;;
63536;SDS011;49686;51.880;5.632;2023-02-28T14:26:49;2.65;;;2.20;;
63536;SDS011;49686;51.880;5.632;2023-02-28T14:29:43;3.72;;;3.05;;
63536;SDS011;49686;51.880;5.632;2023-02-28T14:32:43;2.65;;;1.77;;
63536;SDS011;49686;51.880;5.632;2023-02-28T14:35:17;4.82;;;2.10;;
63536;SDS011;49686;51.880;5.632;2023-02-28T14:37:53;2.25;;;1.58;;
63536;SDS011;49686;51.880;5.632;2023-02-28T14:40:21;3.05;;;1.70;;
63536;SDS011;49686;51.880;5.632;2023-02-28T14:42:54;2.97;;;2.03;;
63536;SDS011;49686;51.880;5.632;2023-02-28T14:45:24;2.25;;;1.50;;
63536;SDS011;49686;51.880;5.632;2023-02-28T14:47:56;2.35;;;2.15;;
63536;SDS011;49686;51.880;5.632;2023-02-28T14:50:25;2.72;;;2.35;;
63536;SDS011;49686;51.880;5.632;2023-02-28T14:52:55;2.28;;;1.90;;
63536;SDS011;49686;51.880;5.632;2023-02-28T14:55:24;3.55;;;2.38;;
63536;SDS011;49686;51.880;5.632;2023-02-28T14:57:54;2.00;;;1.80;;
63536;SDS011;49686;51.880;5.632;2023-02-28T15:00:23;3.80;;;2.17;;
63536;SDS011;49686;51.880;5.632;2023-02-28T15:02:51;3.88;;;2.17;;
63536;SDS011;49686;51.880;5.632;2023-02-28T15:05:24;2.00;;;1.80;;
63536;SDS011;49686;51.880;5.632;2023-02-28T15:08:03;3.67;;;2.22;;
63536;SDS011;49686;51.880;5.632;2023-02-28T15:10:32;2.67;;;1.85;;
63536;SDS011;49686;51.880;5.632;2023-02-28T15:13:00;2.72;;;1.95;;
63536;SDS011;49686;51.880;5.632;2023-02-28T15:15:33;2.78;;;2.03;;
63536;SDS011;49686;51.880;5.632;2023-02-28T15:18:28;2.65;;;1.80;;
63536;SDS011;49686;51.880;5.632;2023-02-28T15:21:06;3.42;;;1.98;;
63536;SDS011;49686;51.880;5.632;2023-02-28T15:23:34;3.60;;;2.47;;
63536;SDS011;49686;51.880;5.632;2023-02-28T15:26:03;5.55;;;3.17;;
63536;SDS011;49686;51.880;5.632;2023-02-28T15:28:31;3.00;;;2.35;;
63536;SDS011;49686;51.880;5.632;2023-02-28T15:30:59;2.97;;;2.53;;
63536;SDS011;49686;51.880;5.632;2023-02-28T15:36:06;3.15;;;1.85;;
63536;SDS011;49686;51.880;5.632;2023-02-28T15:38:40;3.58;;;3.28;;
63536;SDS011;49686;51.880;5.632;2023-02-28T15:43:47;4.68;;;2.55;;
63536;SDS011;49686;51.880;5.632;2023-02-28T15:46:14;3.20;;;2.03;;
63536;SDS011;49686;51.880;5.632;2023-02-28T15:48:42;5.72;;;2.40;;
63536;SDS011;49686;51.880;5.632;2023-02-28T15:51:14;4.20;;;2.88;;
63536;SDS011;49686;51.880;5.632;2023-02-28T15:53:45;5.05;;;3.78;;